Time;durP1;ratioP1;P1;durP2;ratioP2;P2;SDS_P1;SDS_P2;PMS_P1;PMS_P2;Temp;Humidity;BMP_temperature;BMP_pressure;BME280_temperature;BME280_humidity;BME280_pressure;Samples;Min_cycle;Max_cycle;Signal;HPM_P1;HPM_P2
2021/11/23 00:01:17;;;;;;;10.80;6.80;;;;;;;0.36;98.28;101553.03;5015738;28;20053;-65
2021/11/23 00:03:44;;;;;;;11.27;6.57;;;;;;;0.43;97.54;101560.94;5015812;28;20056;-65
2021/11/23 00:06:11;;;;;;;11.50;7.25;;;;;;;0.43;97.41;101559.19;5015915;28;20048;-65
2021/11/23 00:08:38;;;;;;;16.77;7.18;;;;;;;0.37;97.80;101564.41;5015589;28;20108;-65
2021/11/23 00:11:05;;;;;;;14.63;7.30;;;;;;;0.30;98.24;101560.91;5015708;28;20431;-66
2021/11/23 00:13:32;;;;;;;13.50;8.27;;;;;;;0.28;98.29;101567.91;5015543;28;20092;-65
2021/11/23 00:16:00;;;;;;;15.10;7.55;;;;;;;0.23;97.88;101572.25;5014353;28;20462;-66
2021/11/23 00:18:26;;;;;;;13.10;8.02;;;;;;;0.19;98.07;101570.47;5031146;28;20049;-66
2021/11/23 00:20:53;;;;;;;12.07;7.22;;;;;;;0.19;98.73;101573.97;5015564;28;20054;-66
2021/11/23 00:23:20;;;;;;;14.13;7.10;;;;;;;0.20;97.83;101569.59;5015371;28;20046;-65
2021/11/23 00:25:47;;;;;;;13.85;6.78;;;;;;;0.25;97.83;101574.00;5015457;28;20466;-65
2021/11/23 00:28:14;;;;;;;12.82;6.65;;;;;;;0.25;97.87;101573.13;5015672;28;20104;-65
2021/11/23 00:30:43;;;;;;;11.85;7.25;;;;;;;0.22;97.48;101578.38;5015413;28;20057;-65
2021/11/23 00:33:10;;;;;;;10.02;6.40;;;;;;;0.17;98.20;101569.59;5014382;28;20046;-65
2021/11/23 00:35:37;;;;;;;13.18;7.25;;;;;;;0.25;97.56;101568.75;5015450;28;20061;-65
2021/11/23 00:38:05;;;;;;;12.43;6.80;;;;;;;0.24;97.25;101571.38;5014126;28;20056;-65
2021/11/23 00:40:32;;;;;;;13.35;7.90;;;;;;;0.18;98.16;101563.47;5015329;28;20045;-65
2021/11/23 00:43:04;;;;;;;16.70;8.32;;;;;;;0.23;98.39;101567.84;5015117;28;20443;-65
2021/11/23 00:45:32;;;;;;;14.95;8.50;;;;;;;0.25;98.47;101562.63;5015103;28;20057;-65
2021/11/23 00:48:00;;;;;;;13.23;8.57;;;;;;;0.15;98.22;101566.94;5015189;28;20666;-65
2021/11/23 00:50:28;;;;;;;16.08;8.48;;;;;;;0.11;98.71;101570.44;5014159;28;20089;-65
2021/11/23 00:52:55;;;;;;;14.85;8.27;;;;;;;0.10;98.55;101564.31;5015080;28;20060;-65
2021/11/23 00:55:21;;;;;;;13.93;7.40;;;;;;;0.11;98.34;101565.19;5015304;28;20053;-65
2021/11/23 00:57:48;;;;;;;16.60;7.93;;;;;;;0.11;98.18;101565.19;5015458;28;20049;-65
2021/11/23 01:00:15;;;;;;;15.63;7.95;;;;;;;-0.01;98.64;101560.72;5017041;28;20046;-66
2021/11/23 01:02:43;;;;;;;15.20;8.00;;;;;;;0.01;98.45;101566.88;5014201;28;20113;-66
2021/11/23 01:05:10;;;;;;;13.05;8.15;;;;;;;0.01;98.50;101566.00;5014103;28;20046;-66
2021/11/23 01:07:37;;;;;;;15.98;8.70;;;;;;;-0.06;98.78;101565.09;5017612;28;20041;-66
2021/11/23 01:10:06;;;;;;;12.10;7.70;;;;;;;-0.04;98.49;101572.09;5017640;28;20344;-66
2021/11/23 01:12:33;;;;;;;15.52;9.02;;;;;;;-0.05;99.06;101565.09;5018717;28;20432;-65
2021/11/23 01:15:01;;;;;;;11.88;7.80;;;;;;;0.02;98.46;101566.00;5018620;28;20116;-65
2021/11/23 01:17:28;;;;;;;19.83;9.65;;;;;;;0.05;98.34;101567.78;5018491;28;20050;-65
2021/11/23 01:19:55;;;;;;;13.43;8.13;;;;;;;-0.02;98.97;101564.22;5018622;28;20398;-65
2021/11/23 01:22:22;;;;;;;15.98;8.20;;;;;;;-0.01;98.54;101558.09;5018808;28;20061;-65
2021/11/23 01:24:49;;;;;;;23.52;9.00;;;;;;;-0.05;98.71;101558.97;5017495;28;20077;-66
2021/11/23 01:27:16;;;;;;;16.10;8.43;;;;;;;0.00;98.46;101557.25;5018508;28;20428;-65
2021/11/23 01:29:43;;;;;;;12.63;8.43;;;;;;;0.00;98.46;101546.75;5018543;28;20139;-65
2021/11/23 01:32:10;;;;;;;14.02;7.47;;;;;;;-0.04;98.54;101544.97;5018566;28;20046;-65
2021/11/23 01:34:37;;;;;;;14.02;8.10;;;;;;;-0.08;99.03;101544.09;5018380;28;20375;-65
2021/11/23 01:37:04;;;;;;;12.35;8.07;;;;;;;-0.09;98.74;101551.94;5017109;28;20428;-65
2021/11/23 01:39:31;;;;;;;16.35;8.35;;;;;;;-0.23;99.36;101544.84;5018324;28;20046;-66
2021/11/23 01:41:59;;;;;;;15.65;7.43;;;;;;;-0.08;99.23;101559.81;5017234;28;20352;-65
2021/11/23 01:44:26;;;;;;;15.10;8.38;;;;;;;-0.05;98.78;101559.84;5018108;28;20100;-65
2021/11/23 01:46:53;;;;;;;15.98;9.18;;;;;;;-0.04;98.53;101548.47;5018328;28;20431;-65
2021/11/23 01:49:20;;;;;;;16.38;8.13;;;;;;;-0.06;98.82;101559.84;5018072;28;20100;-65
2021/11/23 01:51:47;;;;;;;16.02;8.63;;;;;;;-0.08;98.92;101556.31;5018055;28;20045;-65
2021/11/23 01:54:14;;;;;;;12.68;8.30;;;;;;;-0.18;98.73;101552.75;5018015;28;20471;-65
2021/11/23 01:56:41;;;;;;;12.63;7.95;;;;;;;-0.18;99.23;101556.28;5017797;28;20431;-65
2021/11/23 01:59:08;;;;;;;14.13;8.73;;;;;;;-0.23;98.98;101544.84;5000582;28;20062;-64
2021/11/23 02:01:34;;;;;;;13.80;7.72;;;;;;;-0.20;98.67;101544.00;5018210;28;20065;-64
2021/11/23 02:04:04;;;;;;;14.70;8.43;;;;;;;-0.13;98.62;101547.56;5018022;28;20045;-64
2021/11/23 02:06:32;;;;;;;13.07;7.75;;;;;;;-0.10;98.33;101543.22;5000931;28;20052;-64
2021/11/23 02:09:00;;;;;;;14.02;8.68;;;;;;;-0.13;98.53;101544.94;5017941;28;20038;-65
2021/11/23 02:11:27;;;;;;;14.05;7.72;;;;;;;-0.13;98.21;101539.69;5017759;28;20042;-65
2021/11/23 02:13:54;;;;;;;15.30;8.20;;;;;;;-0.16;98.71;101541.41;5000489;28;20103;-65
2021/11/23 02:16:22;;;;;;;14.77;8.10;;;;;;;-0.17;98.62;101544.91;5017757;28;20057;-65
2021/11/23 02:18:49;;;;;;;14.63;7.75;;;;;;;-0.26;99.36;101538.72;5016745;28;20045;-65
2021/11/23 02:21:16;;;;;;;13.52;8.45;;;;;;;-0.26;99.33;101543.97;5017594;28;20045;-65
2021/11/23 02:23:44;;;;;;;14.90;8.02;;;;;;;-0.21;99.01;101532.63;5017752;28;20054;-65
2021/11/23 02:26:11;;;;;;;14.65;8.02;;;;;;;-0.16;98.60;101541.41;5017320;28;20058;-65
2021/11/23 02:28:38;;;;;;;13.93;7.70;;;;;;;-0.22;98.86;101543.97;5032867;28;20049;-65
2021/11/23 02:31:06;;;;;;;14.90;8.63;;;;;;;-0.33;99.24;101538.69;5017478;28;20046;-65
2021/11/23 02:33:33;;;;;;;16.92;8.35;;;;;;;-0.34;99.38;101544.78;5017280;28;20100;-64
2021/11/23 02:36:02;;;;;;;13.82;7.13;;;;;;;-0.31;99.84;101546.56;5017414;28;20057;-64
2021/11/23 02:38:31;;;;;;;16.38;8.48;;;;;;;-0.27;98.81;101553.59;5017461;28;20049;-65
2021/11/23 02:40:58;;;;;;;11.82;7.70;;;;;;;-0.28;99.24;101546.56;5017166;28;20049;-65
2021/11/23 02:43:25;;;;;;;13.55;8.00;;;;;;;-0.30;99.66;101545.69;5017172;28;20066;-64
2021/11/23 02:45:55;;;;;;;21.00;8.55;;;;;;;-0.26;98.88;101536.09;5032489;28;20527;-65
2021/11/23 02:48:21;;;;;;;15.35;9.23;;;;;;;-0.28;99.16;101541.31;5017159;28;20042;-68
2021/11/23 02:51:04;;;;;;;15.48;8.80;;;;;;;-0.26;99.01;101536.97;5032640;28;20160;-64
2021/11/23 02:53:31;;;;;;;16.60;8.68;;;;;;;-0.23;98.89;101544.84;5017121;28;20329;-65
2021/11/23 02:55:59;;;;;;;18.63;8.68;;;;;;;-0.26;98.77;101536.97;5016824;28;20112;-65
2021/11/23 02:58:27;;;;;;;14.60;8.57;;;;;;;-0.20;98.77;101542.28;5016843;28;20050;-65
2021/11/23 03:00:54;;;;;;;14.13;8.60;;;;;;;-0.30;98.81;101543.06;5016052;28;20152;-64
2021/11/23 03:03:21;;;;;;;20.88;8.73;;;;;;;-0.27;99.01;101540.47;5016861;28;20038;-65
2021/11/23 03:05:47;;;;;;;12.68;8.45;;;;;;;-0.21;98.69;101540.50;5015466;28;20050;-64
2021/11/23 03:08:14;;;;;;;19.35;8.85;;;;;;;-0.25;98.33;101536.13;5016733;28;20344;-65
2021/11/23 03:10:41;;;;;;;15.98;9.48;;;;;;;-0.21;98.78;101547.50;5015680;28;20108;-65
2021/11/23 03:13:08;;;;;;;20.83;8.90;;;;;;;-0.25;98.56;101540.47;5016603;28;20254;-64
2021/11/23 03:15:35;;;;;;;20.05;10.68;;;;;;;-0.28;98.85;101544.84;5016470;28;20391;-65
2021/11/23 03:18:02;;;;;;;20.02;9.77;;;;;;;-0.38;98.93;101529.03;5016438;28;20042;-65
2021/11/23 03:20:29;;;;;;;24.20;11.05;;;;;;;-0.39;98.63;101522.03;5016331;28;20440;-65
2021/11/23 03:22:58;;;;;;;17.60;10.68;;;;;;;-0.28;98.48;101530.81;5015276;28;20128;-64
2021/11/23 03:25:26;;;;;;;17.05;10.13;;;;;;;-0.30;98.77;101543.06;5015128;28;20073;-65
2021/11/23 03:27:53;;;;;;;18.50;10.93;;;;;;;-0.33;99.01;101527.31;5018420;28;20050;-65
2021/11/23 03:30:25;;;;;;;25.75;12.00;;;;;;;-0.25;98.82;101541.34;5022449;28;20137;-65
2021/11/23 03:32:58;;;;;;;17.60;10.73;;;;;;;-0.32;98.37;101527.31;5021219;28;20065;-65
2021/11/23 03:35:26;;;;;;;19.63;11.18;;;;;;;-0.38;98.60;101521.16;5017606;28;20045;-65
2021/11/23 03:37:55;;;;;;;21.25;11.45;;;;;;;-0.36;99.25;101533.41;5014879;28;20045;-65
2021/11/23 03:40:23;;;;;;;23.70;11.25;;;;;;;-0.36;98.86;101533.41;5016469;28;20439;-65
2021/11/23 03:42:51;;;;;;;20.02;11.45;;;;;;;-0.45;99.20;101528.09;5015783;28;20049;-65
2021/11/23 03:45:18;;;;;;;20.35;12.48;;;;;;;-0.52;99.51;101521.06;5031340;28;20042;-65
2021/11/23 03:47:48;;;;;;;24.48;11.40;;;;;;;-0.46;98.89;101515.84;5016283;28;20041;-65
2021/11/23 03:50:16;;;;;;;20.38;11.60;;;;;;;-0.42;99.33;101523.75;5014896;28;20073;-65
2021/11/23 03:52:44;;;;;;;18.80;11.18;;;;;;;-0.40;99.57;101517.66;5015868;28;20046;-65
2021/11/23 03:55:16;;;;;;;28.45;12.48;;;;;;;-0.42;98.92;101523.75;5015942;28;20320;-65
2021/11/23 03:57:45;;;;;;;19.25;11.90;;;;;;;-0.52;99.81;101524.56;5015764;28;20047;-65
2021/11/23 04:00:13;;;;;;;24.40;12.55;;;;;;;-0.40;99.31;101522.91;5015785;28;20061;-65
2021/11/23 04:02:41;;;;;;;20.48;12.80;;;;;;;-0.50;99.51;101525.44;5014599;28;20056;-65
2021/11/23 04:05:09;;;;;;;23.63;13.23;;;;;;;-0.50;99.79;101527.22;5014374;28;20435;-64
2021/11/23 04:07:39;;;;;;;24.80;12.52;;;;;;;-0.47;99.72;101532.47;5015866;28;20050;-65
2021/11/23 04:10:12;;;;;;;22.75;12.95;;;;;;;-0.52;99.67;101535.06;5014577;28;20050;-65
2021/11/23 04:12:39;;;;;;;21.98;12.23;;;;;;;-0.53;99.53;101533.31;5015528;28;20442;-65
2021/11/23 04:15:08;;;;;;;25.02;12.50;;;;;;;-0.52;99.66;101542.94;5015554;28;20041;-64
2021/11/23 04:17:35;;;;;;;21.13;12.32;;;;;;;-0.46;99.07;101540.34;5014201;28;20053;-65
2021/11/23 04:20:05;;;;;;;23.13;12.85;;;;;;;-0.48;99.36;101539.44;5015373;28;20050;-65
2021/11/23 04:22:33;;;;;;;21.85;12.27;;;;;;;-0.53;99.34;101541.19;5015361;28;20050;-65
2021/11/23 04:25:00;;;;;;;21.38;12.02;;;;;;;-0.59;99.34;101535.88;4998206;28;20042;-66
2021/11/23 04:27:28;;;;;;;23.52;12.45;;;;;;;-0.51;99.66;101542.06;4997805;28;20072;-65
2021/11/23 04:29:55;;;;;;;19.52;11.95;;;;;;;-0.55;99.63;101533.28;5015361;28;20045;-65
2021/11/23 04:32:21;;;;;;;22.10;11.73;;;;;;;-0.46;99.12;101542.09;5015159;28;20045;-65
2021/11/23 04:34:48;;;;;;;19.20;11.50;;;;;;;-0.49;99.52;101537.69;5015376;28;20057;-66
2021/11/23 04:37:15;;;;;;;18.73;11.63;;;;;;;-0.45;99.23;101539.47;5014819;28;20046;-65
2021/11/23 04:39:43;;;;;;;19.25;11.95;;;;;;;-0.48;98.93;101536.81;5014641;28;20046;-65
2021/11/23 04:42:10;;;;;;;22.50;11.30;;;;;;;-0.48;99.27;101541.19;5013617;28;20046;-65
2021/11/23 04:44:37;;;;;;;20.05;10.85;;;;;;;-0.49;99.56;101539.44;5015168;28;20325;-65
2021/11/23 04:47:04;;;;;;;25.20;12.10;;;;;;;-0.47;99.29;101541.22;5015152;28;20050;-66
2021/11/23 04:49:31;;;;;;;19.60;10.90;;;;;;;-0.53;99.88;101533.31;5014128;28;20332;-65
2021/11/23 04:51:58;;;;;;;25.13;12.05;;;;;;;-0.44;99.92;101541.22;5014107;28;20045;-65
2021/11/23 04:54:24;;;;;;;19.65;11.43;;;;;;;-0.33;99.58;101532.56;5015223;28;20108;-65
2021/11/23 04:56:51;;;;;;;21.92;10.98;;;;;;;-0.36;99.21;101535.16;5014060;28;20397;-66
2021/11/23 04:59:19;;;;;;;19.35;10.18;;;;;;;-0.33;99.37;101528.19;5014108;28;20117;-65
2021/11/23 05:01:46;;;;;;;15.27;9.32;;;;;;;-0.23;99.19;101531.75;5015056;28;20096;-65
2021/11/23 05:04:13;;;;;;;18.50;9.43;;;;;;;-0.24;99.68;101527.38;5015106;28;20046;-66
2021/11/23 05:06:40;;;;;;;16.63;10.43;;;;;;;-0.11;99.57;101523.06;5015078;28;20427;-66
2021/11/23 05:09:06;;;;;;;21.02;11.18;;;;;;;0.02;99.40;101510.88;5015042;28;20045;-67
2021/11/23 05:11:36;;;;;;;18.42;10.15;;;;;;;0.07;98.78;101516.16;5015246;28;20042;-65
2021/11/23 05:14:02;;;;;;;21.52;11.57;;;;;;;0.17;99.90;101517.06;5014892;28;20099;-66
2021/11/23 05:16:29;;;;;;;23.45;10.65;;;;;;;0.23;98.92;101511.84;5013896;28;20447;-64
2021/11/23 05:18:56;;;;;;;19.17;10.73;;;;;;;0.23;99.28;101514.47;5014945;28;20038;-65
2021/11/23 05:21:23;;;;;;;19.33;11.88;;;;;;;0.30;99.72;101518.88;4997733;28;20054;-65
2021/11/23 05:23:50;;;;;;;15.48;9.93;;;;;;;0.39;99.30;101529.41;5014818;28;20050;-65
2021/11/23 05:26:16;;;;;;;19.50;11.23;;;;;;;0.50;99.17;101525.94;5013580;28;20058;-65
2021/11/23 05:28:43;;;;;;;16.88;10.90;;;;;;;0.50;99.24;101512.81;5030151;28;20179;-65
2021/11/23 05:31:11;;;;;;;24.35;11.68;;;;;;;0.56;99.67;101520.72;5014978;28;20054;-64
2021/11/23 05:33:37;;;;;;;20.80;12.13;;;;;;;0.56;99.90;101519.81;5014725;28;20113;-65
2021/11/23 05:36:04;;;;;;;19.85;12.10;;;;;;;0.63;100.00;101519.84;5013572;28;20046;-65
2021/11/23 05:38:31;;;;;;;21.95;12.20;;;;;;;0.66;99.67;101527.72;5014543;28;20034;-65
2021/11/23 05:40:58;;;;;;;25.33;12.30;;;;;;;0.63;100.00;101516.31;5014725;28;20455;-65
2021/11/23 05:43:25;;;;;;;23.45;13.55;;;;;;;0.77;100.00;101524.25;4997317;28;20431;-65
2021/11/23 05:45:51;;;;;;;24.15;12.93;;;;;;;0.85;99.59;101527.75;5014439;28;20346;-65
2021/11/23 05:48:18;;;;;;;19.42;12.73;;;;;;;0.97;99.12;101526.91;5014674;28;20042;-65
2021/11/23 05:50:45;;;;;;;23.25;12.30;;;;;;;1.04;98.75;101522.53;4997764;28;20045;-65
2021/11/23 05:53:12;;;;;;;19.73;12.25;;;;;;;1.10;98.49;101527.81;5015285;28;20339;-65
2021/11/23 05:55:39;;;;;;;19.67;11.35;;;;;;;1.14;98.46;101526.06;5017037;28;20054;-65
2021/11/23 05:58:05;;;;;;;22.40;11.88;;;;;;;1.18;98.07;101527.78;4983509;28;20105;-65
2021/11/23 06:00:32;;;;;;;20.92;11.65;;;;;;;1.19;98.40;101525.16;5003503;28;20423;-63
2021/11/23 06:02:59;;;;;;;25.33;12.60;;;;;;;1.24;98.34;101524.28;5017695;28;20053;-66
2021/11/23 06:05:26;;;;;;;21.13;12.98;;;;;;;1.30;98.11;101524.31;5018110;28;20046;-65
2021/11/23 06:07:53;;;;;;;21.27;11.88;;;;;;;1.20;98.21;101528.69;5014760;28;20308;-71
2021/11/23 06:10:21;;;;;;;20.38;11.25;;;;;;;1.22;98.67;101526.91;5016320;28;20132;-72
2021/11/23 06:12:49;;;;;;;24.63;12.57;;;;;;;1.25;99.12;101521.66;5017880;28;20057;-72
2021/11/23 06:15:18;;;;;;;20.02;12.02;;;;;;;1.24;99.02;101519.91;5017699;28;20068;-75
2021/11/23 06:17:46;;;;;;;20.70;12.05;;;;;;;1.31;99.04;101511.13;5017641;28;20053;-66
2021/11/23 06:20:14;;;;;;;22.13;12.52;;;;;;;1.33;99.33;101525.16;5017277;28;20042;-66
2021/11/23 06:22:42;;;;;;;20.77;11.60;;;;;;;1.28;99.45;101521.66;5016753;28;20105;-65
2021/11/23 06:25:09;;;;;;;22.45;12.40;;;;;;;1.40;99.74;101525.13;5014584;28;20463;-66
2021/11/23 06:27:36;;;;;;;22.88;12.85;;;;;;;1.30;100.00;101529.56;5016435;28;20347;-65
2021/11/23 06:30:06;;;;;;;21.85;11.68;;;;;;;1.36;99.54;101534.78;4996657;28;20043;-64
2021/11/23 06:32:33;;;;;;;18.95;11.70;;;;;;;1.32;100.00;101533.06;4997793;28;20101;-67
2021/11/23 06:34:59;;;;;;;22.70;11.45;;;;;;;1.39;99.50;101528.66;4997953;28;20050;-67
2021/11/23 06:37:26;;;;;;;19.00;11.90;;;;;;;1.44;99.73;101538.31;4996798;28;20069;-66
2021/11/23 06:39:53;;;;;;;22.98;12.40;;;;;;;1.45;98.90;101529.53;4997734;28;20038;-68
2021/11/23 06:42:20;;;;;;;24.27;12.23;;;;;;;1.51;98.81;101543.56;5010005;28;20053;-68
2021/11/23 06:44:47;;;;;;;22.20;12.70;;;;;;;1.62;98.80;101544.41;5021116;28;20446;-69
2021/11/23 06:47:14;;;;;;;20.17;11.50;;;;;;;1.60;99.06;101540.91;5005207;28;20355;-67
2021/11/23 06:49:41;;;;;;;19.25;11.40;;;;;;;1.60;98.82;101531.28;5024201;28;20045;-67
2021/11/23 06:52:08;;;;;;;20.50;12.65;;;;;;;1.65;99.22;101546.19;5015929;28;20042;-68
2021/11/23 06:54:37;;;;;;;23.65;12.15;;;;;;;1.61;99.06;101537.41;5016582;28;20073;-67
2021/11/23 06:57:04;;;;;;;23.42;13.30;;;;;;;1.68;99.35;101543.56;5016703;28;20049;-68
2021/11/23 06:59:36;;;;;;;24.60;13.00;;;;;;;1.72;99.28;101547.91;5017070;28;20037;-71
2021/11/23 07:02:03;;;;;;;21.60;12.23;;;;;;;1.67;99.59;101549.66;5005018;28;20049;-75
2021/11/23 07:04:31;;;;;;;20.45;13.27;;;;;;;1.74;99.95;101557.56;5014468;28;20046;-74
2021/11/23 07:06:58;;;;;;;27.08;14.30;;;;;;;1.71;99.69;101562.84;5015313;28;20054;-67
2021/11/23 07:09:25;;;;;;;20.98;12.75;;;;;;;1.79;99.84;101564.59;5016162;28;20045;-75
2021/11/23 07:11:55;;;;;;;25.25;13.60;;;;;;;1.90;99.50;101554.88;5015254;28;20067;-65
2021/11/23 07:14:22;;;;;;;24.55;12.93;;;;;;;1.92;99.34;101555.78;5015008;28;20472;-64
2021/11/23 07:16:49;;;;;;;22.38;12.10;;;;;;;1.89;99.81;101555.78;5016226;28;20442;-64
2021/11/23 07:19:16;;;;;;;26.10;13.88;;;;;;;1.84;99.90;101560.16;5005963;28;20053;-64
2021/11/23 07:21:43;;;;;;;22.77;12.85;;;;;;;1.88;100.00;101560.19;5016315;28;20066;-65
2021/11/23 07:24:11;;;;;;;24.25;13.30;;;;;;;1.86;100.00;101563.69;5015128;28;20081;-64
2021/11/23 07:26:38;;;;;;;25.10;13.60;;;;;;;1.90;100.00;101573.31;5016034;28;20065;-65
2021/11/23 07:29:07;;;;;;;25.90;13.93;;;;;;;1.89;100.00;101564.56;5015123;28;20049;-65
2021/11/23 07:31:34;;;;;;;25.48;13.63;;;;;;;1.98;100.00;101575.94;5016129;28;20038;-66
2021/11/23 07:34:01;;;;;;;24.30;13.10;;;;;;;2.08;100.00;101576.81;5014918;28;20099;-66
2021/11/23 07:36:28;;;;;;;22.90;12.93;;;;;;;2.16;99.81;101586.44;5015181;28;20077;-65
2021/11/23 07:38:56;;;;;;;25.25;13.43;;;;;;;2.19;99.42;101582.94;5015952;28;20129;-65
2021/11/23 07:41:23;;;;;;;24.73;12.55;;;;;;;2.14;99.79;101579.44;5015059;28;20052;-64
2021/11/23 07:43:50;;;;;;;19.65;12.20;;;;;;;2.22;99.77;101585.53;5014874;28;20034;-65
2021/11/23 07:46:18;;;;;;;23.33;12.60;;;;;;;2.34;99.39;101578.47;5015959;28;20046;-64
2021/11/23 07:48:45;;;;;;;23.02;12.82;;;;;;;2.26;99.71;101575.88;5015323;28;20412;-64
2021/11/23 07:51:13;;;;;;;21.67;11.85;;;;;;;2.28;99.17;101574.97;5016087;28;20073;-63
2021/11/23 07:53:40;;;;;;;25.60;14.05;;;;;;;2.34;99.28;101584.63;5015819;28;20049;-68
2021/11/23 07:56:07;;;;;;;20.73;12.65;;;;;;;2.40;99.08;101581.09;5014498;28;20440;-67
2021/11/23 07:58:33;;;;;;;24.48;13.50;;;;;;;2.49;99.11;101583.69;5015388;28;20042;-64
2021/11/23 08:01:05;;;;;;;23.60;13.13;;;;;;;2.57;98.79;101586.28;5014795;28;20124;-62
2021/11/23 08:03:32;;;;;;;21.95;12.50;;;;;;;2.02;98.23;101491.66;5015673;28;20053;-65
2021/11/23 08:05:59;;;;;;;19.92;11.95;;;;;;;2.64;98.58;101573.94;5015614;28;20050;-64
2021/11/23 08:08:27;;;;;;;23.00;12.40;;;;;;;2.77;98.73;101578.28;5031071;28;20121;-63
2021/11/23 08:10:54;;;;;;;26.15;13.82;;;;;;;2.80;98.49;101580.00;5014405;28;20117;-63
2021/11/23 08:13:21;;;;;;;21.85;12.73;;;;;;;2.74;99.00;101590.59;5014365;28;20043;-71
2021/11/23 08:15:48;;;;;;;22.02;12.77;;;;;;;2.74;99.58;101594.13;5014097;28;20046;-70
2021/11/23 08:18:14;;;;;;;25.25;13.60;;;;;;;2.73;99.73;101592.38;5015418;28;20050;-64
2021/11/23 08:20:43;;;;;;;21.15;12.27;;;;;;;2.81;98.95;101594.94;5015314;28;20395;-65
2021/11/23 08:23:10;;;;;;;22.98;12.68;;;;;;;2.92;98.31;101597.53;5015426;28;20042;-65
2021/11/23 08:25:40;;;;;;;22.35;12.70;;;;;;;2.94;98.41;101596.63;5015114;28;20054;-64
2021/11/23 08:28:08;;;;;;;16.48;9.60;;;;;;;2.90;98.73;101599.31;5014429;28;20058;-65
2021/11/23 08:30:34;;;;;;;25.90;12.75;;;;;;;3.01;98.46;101599.22;5015320;28;20420;-65
2021/11/23 08:33:01;;;;;;;23.15;12.45;;;;;;;3.00;98.85;101598.38;5015284;28;20072;-64
2021/11/23 08:35:28;;;;;;;21.35;12.60;;;;;;;3.16;98.24;101598.25;5015460;28;20061;-64
2021/11/23 08:37:55;;;;;;;22.63;12.73;;;;;;;3.26;97.53;101598.19;5015133;28;20054;-64
2021/11/23 08:40:22;;;;;;;23.60;12.43;;;;;;;3.26;97.39;101597.28;5014003;28;20068;-64
2021/11/23 08:42:51;;;;;;;24.02;11.73;;;;;;;3.25;97.83;101595.56;5015372;28;20038;-66
2021/11/23 08:45:18;;;;;;;18.92;11.13;;;;;;;3.34;97.19;101598.13;4982594;28;20127;-65
2021/11/23 08:47:47;;;;;;;17.63;10.85;;;;;;;3.35;96.79;101597.25;5014237;28;20038;-65
2021/11/23 08:50:14;;;;;;;25.13;10.63;;;;;;;3.37;96.28;101594.56;5015146;28;20081;-65
2021/11/23 08:52:41;;;;;;;17.13;10.00;;;;;;;3.45;94.98;101594.53;5013493;28;20057;-63
2021/11/23 08:55:09;;;;;;;21.23;9.68;;;;;;;3.50;94.91;101600.66;4990960;28;20434;-63
2021/11/23 08:57:36;;;;;;;19.05;10.43;;;;;;;3.62;94.63;101603.19;5000531;28;20339;-66
2021/11/23 09:02:38;;;;;;;16.23;9.60;;;;;;;3.70;94.03;101602.25;4997948;28;20410;-65
2021/11/23 09:05:12;;;;;;;19.88;9.63;;;;;;;3.71;95.09;101607.50;4993627;28;20101;-63
2021/11/23 09:07:40;;;;;;;17.25;9.02;;;;;;;3.63;95.99;101606.69;4997281;28;20160;-63
2021/11/23 09:10:12;;;;;;;15.73;8.77;;;;;;;3.66;95.38;101612.81;4997039;28;20050;-65
2021/11/23 09:12:38;;;;;;;19.35;9.27;;;;;;;3.64;95.53;101606.69;4997162;28;20484;-65
2021/11/23 09:15:05;;;;;;;17.55;8.43;;;;;;;3.71;95.35;101609.28;4997267;28;20042;-64
2021/11/23 09:17:32;;;;;;;17.25;8.93;;;;;;;3.74;95.32;101598.66;5005697;28;20054;-65
2021/11/23 09:19:59;;;;;;;16.90;9.05;;;;;;;3.86;94.23;101611.75;4998319;28;20424;-65
2021/11/23 09:22:26;;;;;;;14.55;9.73;;;;;;;3.83;95.35;101614.44;4995338;28;20056;-65
2021/11/23 09:24:54;;;;;;;20.58;9.73;;;;;;;3.86;95.72;101617.03;5010681;28;20144;-65
2021/11/23 09:27:21;;;;;;;19.77;9.95;;;;;;;3.91;95.58;101612.59;5015353;28;20062;-64
2021/11/23 09:29:48;;;;;;;20.63;9.98;;;;;;;4.09;93.49;101613.31;5017430;28;20049;-65
2021/11/23 09:32:16;;;;;;;15.82;9.35;;;;;;;4.15;91.19;101617.66;5018453;28;20054;-64
2021/11/23 09:34:43;;;;;;;16.60;9.13;;;;;;;3.94;92.84;101616.97;5018601;28;20105;-65
2021/11/23 09:37:10;;;;;;;17.85;8.93;;;;;;;3.97;92.44;101618.72;5017262;28;20054;-65
2021/11/23 09:39:36;;;;;;;15.23;8.77;;;;;;;4.10;91.92;101611.53;5018262;28;20046;-66
2021/11/23 09:42:07;;;;;;;18.90;8.63;;;;;;;4.20;91.71;101618.50;5017466;28;20069;-65
2021/11/23 09:44:35;;;;;;;18.48;9.30;;;;;;;4.26;91.72;101614.88;5017200;28;20428;-65
2021/11/23 09:47:03;;;;;;;17.42;8.90;;;;;;;4.26;92.05;101612.25;5017794;28;20157;-64
2021/11/23 09:49:30;;;;;;;14.52;7.78;;;;;;;4.19;90.88;101622.88;5018183;28;20351;-65
2021/11/23 09:51:57;;;;;;;17.10;7.30;;;;;;;4.17;90.73;101616.75;5017218;28;20038;-65
2021/11/23 09:54:24;;;;;;;15.88;6.32;;;;;;;4.26;91.70;101607.84;5016390;28;20053;-65
2021/11/23 09:56:51;;;;;;;14.13;5.88;;;;;;;4.37;90.17;101609.47;4997082;28;20042;-65
2021/11/23 09:59:18;;;;;;;12.25;5.82;;;;;;;4.47;89.81;101612.00;4998340;28;20116;-66
2021/11/23 10:01:57;;;;;;;13.38;6.57;;;;;;;4.70;87.99;101617.88;4998324;28;20097;-64
2021/11/23 10:04:55;;;;;;;12.88;7.15;;;;;;;4.73;86.58;101613.44;4998131;28;20093;-64
2021/11/23 10:07:34;;;;;;;10.35;5.85;;;;;;;4.84;86.92;101617.69;4997375;28;20395;-65
2021/11/23 10:10:11;;;;;;;12.13;7.07;;;;;;;4.94;86.74;101626.38;4998177;28;20045;-65
2021/11/23 10:12:38;;;;;;;13.20;8.20;;;;;;;5.05;83.90;101616.53;4998215;28;20038;-67
2021/11/23 10:15:40;;;;;;;16.95;8.63;;;;;;;5.01;85.84;101610.41;4998384;28;20387;-65
2021/11/23 10:18:12;;;;;;;15.45;9.38;;;;;;;4.99;87.05;101627.19;4998298;28;20042;-66
2021/11/23 10:20:45;;;;;;;20.67;10.38;;;;;;;4.82;89.90;101604.50;4997162;28;20042;-65
2021/11/23 10:23:28;;;;;;;20.75;10.48;;;;;;;4.92;89.93;101618.50;4998742;28;20418;-66
2021/11/23 10:26:13;;;;;;;18.63;10.10;;;;;;;4.91;90.95;101618.50;5016123;28;20054;-65
2021/11/23 10:28:43;;;;;;;22.88;11.82;;;;;;;4.89;88.80;101611.47;5007591;28;20133;-65
2021/11/23 10:31:12;;;;;;;25.83;12.60;;;;;;;4.74;90.74;101620.47;5008768;28;20060;-65
2021/11/23 10:33:39;;;;;;;22.35;12.20;;;;;;;4.64;89.73;101615.31;5016436;28;20053;-65
2021/11/23 10:36:09;;;;;;;23.13;11.02;;;;;;;4.59;89.49;101615.38;5017296;28;20045;-65
2021/11/23 10:38:38;;;;;;;21.65;10.98;;;;;;;4.47;89.95;101611.13;5017262;28;20042;-68
2021/11/23 10:41:07;;;;;;;22.45;10.85;;;;;;;4.47;91.80;101606.69;5016822;28;20045;-65
2021/11/23 10:43:37;;;;;;;23.95;11.30;;;;;;;4.56;91.89;101610.13;5016279;28;20481;-66
2021/11/23 10:46:12;;;;;;;25.85;11.27;;;;;;;4.59;91.50;101607.44;5017175;28;20053;-66
2021/11/23 10:48:39;;;;;;;22.00;11.68;;;;;;;4.76;91.19;101599.28;5017201;28;20050;-66
2021/11/23 10:51:12;;;;;;;28.33;11.68;;;;;;;4.73;91.70;101592.28;5017339;28;20374;-66
2021/11/23 10:53:42;;;;;;;20.52;10.85;;;;;;;4.88;91.75;101595.59;5016810;28;20037;-65
2021/11/23 10:56:13;;;;;;;22.08;12.20;;;;;;;5.03;91.55;101603.31;5001408;28;20050;-66
2021/11/23 10:58:42;;;;;;;18.20;10.90;;;;;;;5.13;91.68;101597.91;4997466;28;20050;-66
2021/11/23 11:01:10;;;;;;;24.58;11.65;;;;;;;5.15;90.77;101598.75;4997185;28;20479;-65
2021/11/23 11:03:39;;;;;;;22.98;11.15;;;;;;;4.95;91.90;101594.63;4997236;28;20317;-67
2021/11/23 11:06:07;;;;;;;22.05;10.25;;;;;;;4.92;91.73;101588.50;4995662;28;20336;-67
2021/11/23 11:08:41;;;;;;;22.58;10.27;;;;;;;5.07;91.58;101595.34;4996921;28;20498;-66
2021/11/23 11:11:16;;;;;;;19.67;10.02;;;;;;;5.06;91.44;101581.22;5012499;28;20066;-66
2021/11/23 11:13:53;;;;;;;24.65;10.43;;;;;;;5.15;91.94;101583.75;4997096;28;20101;-66
2021/11/23 11:16:21;;;;;;;18.75;9.68;;;;;;;5.38;91.95;101581.63;4997139;28;20046;-66
2021/11/23 11:19:07;;;;;;;23.33;10.55;;;;;;;5.48;90.26;101580.56;4995684;28;20133;-66
2021/11/23 11:22:03;;;;;;;24.80;11.43;;;;;;;5.24;92.31;101579.22;4998701;28;20387;-65
2021/11/23 11:27:33;;;;;;;29.90;12.82;;;;;;;4.88;93.49;101570.03;5012487;28;20065;-61